Time;durP1;ratioP1;P1;durP2;ratioP2;P2;SDS_P1;SDS_P2;PMS_P1;PMS_P2;Temp;Humidity;BMP_temperature;BMP_pressure;BME280_temperature;BME280_humidity;BME280_pressure;Samples;Min_cycle;Max_cycle;Signal;HPM_P1;HPM_P2
2021/06/24 00:00:58;;;;;;;6.18;5.78;;;;;;;10.00;65.30;102340.78;4158659;28;20698;-85
2021/06/24 00:02:59;;;;;;;7.85;7.18;;;;;;;10.00;65.34;102337.22;4193257;28;20107;-84
2021/06/24 00:04:59;;;;;;;6.63;6.03;;;;;;;9.93;65.16;102331.59;4170744;28;20029;-83
2021/06/24 00:06:59;;;;;;;8.30;6.78;;;;;;;9.84;65.21;102325.38;4188644;28;20501;-84
2021/06/24 00:09:00;;;;;;;10.38;9.65;;;;;;;9.92;65.41;102335.41;4171643;28;20130;-84
2021/06/24 00:11:02;;;;;;;10.15;9.27;;;;;;;9.79;65.78;102323.16;4167408;28;20029;-84
2021/06/24 00:13:03;;;;;;;12.75;11.85;;;;;;;9.68;65.38;102306.31;4193906;28;20115;-84
2021/06/24 00:15:04;;;;;;;8.98;8.27;;;;;;;9.83;65.74;102337.31;4190623;28;20053;-84
2021/06/24 00:17:04;;;;;;;7.57;6.03;;;;;;;9.72;65.58;102308.50;4167035;28;20128;-84
2021/06/24 00:19:05;;;;;;;9.90;9.18;;;;;;;9.74;65.74;102311.06;4167669;28;20072;-84
2021/06/24 00:21:06;;;;;;;9.23;8.63;;;;;;;9.75;66.33;102331.91;4166613;28;20026;-84
2021/06/24 00:23:07;;;;;;;8.75;8.13;;;;;;;9.68;66.13;102322.72;4174311;28;20057;-84
2021/06/24 00:25:08;;;;;;;7.50;6.90;;;;;;;9.67;66.06;102318.28;4187622;28;20047;-84
2021/06/24 00:27:08;;;;;;;7.07;6.03;;;;;;;9.76;65.96;102334.47;4193129;28;20041;-84
2021/06/24 00:29:09;;;;;;;7.85;6.43;;;;;;;9.76;65.94;102334.47;4190222;28;20031;-85
2021/06/24 00:31:09;;;;;;;7.07;6.43;;;;;;;9.79;65.80;102335.97;4190451;28;20494;-85
2021/06/24 00:33:10;;;;;;;8.23;7.47;;;;;;;9.71;66.42;102331.41;4168044;28;20546;-84
2021/06/24 00:35:12;;;;;;;10.15;9.20;;;;;;;9.72;66.28;102327.66;4165949;28;20032;-84
2021/06/24 00:37:12;;;;;;;7.13;6.45;;;;;;;9.75;66.26;102327.28;4188178;28;20134;-85
2021/06/24 00:39:13;;;;;;;10.65;9.27;;;;;;;9.63;66.09;102311.50;4175136;28;20032;-84
2021/06/24 00:41:15;;;;;;;9.35;8.60;;;;;;;9.54;66.29;102306.06;4190266;28;20043;-83
2021/06/24 00:43:19;;;;;;;12.82;10.57;;;;;;;9.68;66.52;102320.84;4155903;28;20049;-84
2021/06/24 00:45:19;;;;;;;8.88;8.07;;;;;;;9.73;66.15;102320.28;4185466;28;20501;-84
2021/06/24 00:47:19;;;;;;;11.32;10.43;;;;;;;9.62;66.34;102307.88;4191007;28;20028;-84
2021/06/24 00:49:20;;;;;;;11.30;10.02;;;;;;;9.72;66.32;102316.72;4192355;28;20036;-83
2021/06/24 00:51:20;;;;;;;11.80;10.88;;;;;;;9.53;66.23;102293.44;4194041;28;20031;-86
2021/06/24 00:53:21;;;;;;;9.38;8.50;;;;;;;9.69;66.46;102313.50;4150840;28;20454;-84
2021/06/24 00:55:40;;;;;;;9.75;8.75;;;;;;;9.61;66.38;102300.75;4193275;28;20039;-84
2021/06/24 00:57:40;;;;;;;11.27;10.38;;;;;;;9.70;66.44;102312.44;4160288;28;20426;-84
2021/06/24 00:59:41;;;;;;;7.95;7.45;;;;;;;9.56;66.37;102300.41;4186633;28;20028;-84
2021/06/24 01:01:41;;;;;;;7.40;6.75;;;;;;;9.67;66.22;102319.16;4174849;28;20033;-84
2021/06/24 01:03:42;;;;;;;9.27;8.48;;;;;;;9.70;66.37;102324.25;4170789;28;20068;-84
2021/06/24 01:05:44;;;;;;;6.63;6.18;;;;;;;9.55;66.31;102306.94;4168888;28;20030;-84
2021/06/24 01:07:44;;;;;;;7.60;4.30;;;;;;;9.48;66.31;102297.72;4163933;28;20033;-84
2021/06/24 01:09:44;;;;;;;8.20;7.50;;;;;;;9.64;66.80;102319.50;4190993;28;20070;-84
2021/06/24 01:11:46;;;;;;;7.05;6.65;;;;;;;9.65;66.26;102317.63;4192572;28;20055;-85
2021/06/24 01:13:47;;;;;;;7.47;6.90;;;;;;;9.39;66.54;102291.44;4187011;28;20033;-84
2021/06/24 01:15:47;;;;;;;8.32;7.45;;;;;;;9.40;66.77;102288.53;4190748;28;20040;-84
2021/06/24 01:17:48;;;;;;;4.70;4.30;;;;;;;9.56;66.70;102303.13;4192810;28;20394;-84
2021/06/24 01:19:53;;;;;;;9.35;5.93;;;;;;;9.57;66.76;102318.53;4187106;28;20380;-84
2021/06/24 01:21:53;;;;;;;7.88;7.28;;;;;;;9.59;66.55;102311.84;4191666;28;20031;-84
2021/06/24 01:23:54;;;;;;;8.60;7.80;;;;;;;9.54;66.91;102316.97;4193197;28;20028;-84
2021/06/24 01:25:54;;;;;;;9.48;8.88;;;;;;;9.36;66.84;102292.69;4172201;28;21260;-85
2021/06/24 01:27:59;;;;;;;9.35;8.23;;;;;;;9.41;67.04;102303.91;4176514;28;20079;-84
2021/06/24 01:30:00;;;;;;;9.68;8.85;;;;;;;9.34;67.41;102297.44;4183445;28;20033;-84
2021/06/24 01:32:00;;;;;;;9.95;9.25;;;;;;;9.34;67.11;102302.06;4170933;28;20064;-85
2021/06/24 01:34:04;;;;;;;10.48;9.70;;;;;;;9.36;67.34;102303.63;4187466;28;20146;-84
2021/06/24 01:36:05;;;;;;;12.02;11.23;;;;;;;9.23;67.76;102295.09;4185138;28;20774;-85
2021/06/24 01:38:08;;;;;;;14.73;13.68;;;;;;;9.32;67.57;102304.13;4188849;28;20027;-85
2021/06/24 01:40:09;;;;;;;12.50;11.65;;;;;;;9.23;67.53;102293.19;4189953;28;20033;-84
2021/06/24 01:42:13;;;;;;;8.50;7.90;;;;;;;9.23;67.14;102297.81;4186850;28;20041;-84
2021/06/24 01:44:27;;;;;;;8.65;8.05;;;;;;;9.21;67.60;102308.94;4155541;28;20667;-84
2021/06/24 01:46:28;;;;;;;12.57;11.48;;;;;;;9.22;67.42;102315.25;4185066;28;20036;-84
2021/06/24 01:48:29;;;;;;;8.38;7.57;;;;;;;9.05;67.34;102289.88;4192427;28;20021;-90
2021/06/24 01:50:30;;;;;;;8.60;8.10;;;;;;;9.11;67.25;102296.50;4190878;28;20031;-86
2021/06/24 01:52:30;;;;;;;10.02;9.18;;;;;;;9.24;67.54;102327.69;4171460;28;20100;-87
2021/06/24 01:54:31;;;;;;;9.18;8.55;;;;;;;9.13;67.97;102311.72;4183102;28;20033;-84
2021/06/24 01:56:31;;;;;;;9.55;8.93;;;;;;;9.18;67.93;102327.56;4189421;28;20032;-86
2021/06/24 01:58:32;;;;;;;11.48;10.68;;;;;;;9.10;68.07;102314.78;4193438;28;20128;-84
2021/06/24 02:00:33;;;;;;;11.43;10.63;;;;;;;8.98;68.07;102297.94;4161295;28;20037;-84
2021/06/24 02:02:34;;;;;;;13.40;12.30;;;;;;;9.03;67.81;102303.69;4181871;28;20036;-85
2021/06/24 02:04:34;;;;;;;12.98;12.02;;;;;;;8.99;67.82;102290.56;4199399;28;20054;-84
2021/06/24 02:06:35;;;;;;;14.43;13.23;;;;;;;9.13;67.95;102306.25;4182025;28;20047;-84
2021/06/24 02:08:36;;;;;;;12.18;11.35;;;;;;;8.96;68.28;102296.41;4171433;28;20042;-84
2021/06/24 02:10:36;;;;;;;10.48;9.60;;;;;;;9.00;67.94;102284.09;4192778;28;20619;-84
2021/06/24 02:12:37;;;;;;;11.25;10.15;;;;;;;8.92;68.45;102282.25;4152768;28;20045;-85
2021/06/24 02:14:37;;;;;;;11.00;10.10;;;;;;;9.08;68.49;102305.91;4188950;28;20097;-86
2021/06/24 02:16:38;;;;;;;11.95;10.95;;;;;;;9.05;68.77;102298.06;4190092;28;20035;-86
2021/06/24 02:18:38;;;;;;;13.55;12.55;;;;;;;9.01;68.76;102299.47;4165836;28;20033;-84
2021/06/24 02:20:40;;;;;;;12.77;9.90;;;;;;;8.95;68.30;102290.09;4173695;28;20033;-85
2021/06/24 02:22:41;;;;;;;13.35;12.07;;;;;;;8.93;68.52;102285.81;4185417;28;20040;-88
2021/06/24 02:24:42;;;;;;;16.02;14.73;;;;;;;8.84;68.41;102280.41;4151827;28;20049;-86
2021/06/24 02:26:42;;;;;;;14.38;12.93;;;;;;;8.80;68.62;102268.13;4191996;28;20450;-85
2021/06/24 02:28:43;;;;;;;12.05;10.90;;;;;;;8.85;68.57;102276.66;4170183;28;20041;-86
2021/06/24 02:30:43;;;;;;;11.18;10.20;;;;;;;8.89;69.17;102277.97;4168886;28;20025;-85
2021/06/24 02:32:44;;;;;;;10.40;9.45;;;;;;;9.02;68.74;102291.09;4170851;28;20044;-84
2021/06/24 02:34:46;;;;;;;12.65;11.45;;;;;;;9.04;68.99;102296.38;4170583;28;20530;-86
2021/06/24 02:36:46;;;;;;;14.13;12.85;;;;;;;9.03;68.64;102292.78;4191665;28;20505;-86
2021/06/24 02:38:47;;;;;;;16.58;15.00;;;;;;;9.07;68.74;102296.03;4139133;28;20034;-86
2021/06/24 02:40:48;;;;;;;11.02;10.07;;;;;;;8.95;69.16;102276.44;4168618;28;20205;-84
2021/06/24 02:42:48;;;;;;;13.23;9.77;;;;;;;9.01;68.67;102297.56;4189735;28;20032;-85
2021/06/24 02:44:49;;;;;;;16.02;11.20;;;;;;;9.05;68.47;102285.28;4164331;28;20045;-85
2021/06/24 02:46:49;;;;;;;12.00;10.82;;;;;;;8.93;68.84;102273.03;4190220;28;20040;-85
2021/06/24 02:48:50;;;;;;;12.77;11.05;;;;;;;8.85;68.67;102257.53;4186905;28;20040;-84
2021/06/24 02:50:50;;;;;;;11.95;10.85;;;;;;;8.85;68.99;102260.28;4169468;28;20045;-85
2021/06/24 02:52:50;;;;;;;13.85;12.57;;;;;;;8.99;68.83;102261.41;4180314;28;20036;-86
2021/06/24 02:54:51;;;;;;;11.98;9.38;;;;;;;8.89;68.89;102249.84;4183372;28;20115;-85
2021/06/24 02:56:52;;;;;;;9.45;8.60;;;;;;;9.00;69.11;102259.53;4172675;28;20606;-85
2021/06/24 02:58:52;;;;;;;8.68;7.93;;;;;;;8.95;68.66;102249.13;4186249;28;20021;-84
2021/06/24 03:00:53;;;;;;;9.90;8.90;;;;;;;8.85;68.65;102241.16;4182076;28;20033;-84
2021/06/24 03:02:54;;;;;;;10.07;8.70;;;;;;;8.88;68.84;102254.47;4174001;28;20102;-86
2021/06/24 03:04:54;;;;;;;10.02;8.27;;;;;;;8.89;68.87;102264.34;4188982;28;20040;-86
2021/06/24 03:06:55;;;;;;;13.40;10.25;;;;;;;8.78;69.11;102242.88;4168522;28;20083;-85
2021/06/24 03:08:55;;;;;;;10.23;9.30;;;;;;;8.79;68.90;102244.59;4169457;28;20694;-85
2021/06/24 03:10:56;;;;;;;10.50;9.60;;;;;;;8.87;68.97;102260.09;4155095;28;20064;-86
2021/06/24 03:12:56;;;;;;;9.48;8.77;;;;;;;8.89;69.20;102266.22;4158400;28;20034;-86
2021/06/24 03:14:56;;;;;;;;;;;;;;;8.89;69.16;102277.16;4169269;28;20491;-85
2021/06/24 03:16:57;;;;;;;13.10;11.77;;;;;;;8.90;68.76;102273.41;4185130;28;19924;-85
2021/06/24 03:18:57;;;;;;;;;;;;;;;8.94;68.90;102279.34;4145279;28;20046;-84
2021/06/24 03:20:58;;;;;;;7.63;7.07;;;;;;;8.74;68.89;102251.59;4187214;28;20037;-85
2021/06/24 03:22:59;;;;;;;10.18;9.43;;;;;;;8.71;68.92;102263.72;4191002;28;20044;-85
2021/06/24 03:25:01;;;;;;;9.57;7.85;;;;;;;8.70;68.58;102251.94;4189835;28;20119;-84
2021/06/24 03:27:02;;;;;;;8.48;7.75;;;;;;;8.72;69.07;102262.69;4190695;28;20029;-85
2021/06/24 03:29:05;;;;;;;10.65;9.65;;;;;;;8.86;68.74;102267.41;4194781;28;20029;-84
2021/06/24 03:31:05;;;;;;;7.93;6.63;;;;;;;8.73;68.89;102250.75;4158804;28;20085;-86
2021/06/24 03:33:06;;;;;;;9.02;8.23;;;;;;;8.87;69.22;102265.56;4189273;28;20028;-84
2021/06/24 03:35:07;;;;;;;9.52;8.82;;;;;;;8.92;68.99;102270.50;4192359;28;20032;-84
2021/06/24 03:37:07;;;;;;;11.60;10.80;;;;;;;8.87;69.24;102260.94;4190944;28;20624;-84
2021/06/24 03:39:08;;;;;;;11.02;9.93;;;;;;;8.89;69.07;102267.06;4170735;28;20036;-85
2021/06/24 03:41:08;;;;;;;12.57;11.57;;;;;;;8.86;68.76;102258.38;4190023;28;20105;-85
2021/06/24 03:43:08;;;;;;;10.05;9.25;;;;;;;8.88;69.07;102268.09;4156337;28;20068;-86
2021/06/24 03:45:09;;;;;;;11.27;10.27;;;;;;;9.01;68.92;102280.34;4191341;28;20144;-84
2021/06/24 03:47:10;;;;;;;14.32;13.23;;;;;;;8.93;68.74;102256.66;4183813;28;20042;-87
2021/06/24 03:49:11;;;;;;;14.55;13.35;;;;;;;9.03;68.71;102256.44;4143547;28;20018;-85
2021/06/24 03:51:13;;;;;;;12.77;11.88;;;;;;;8.84;68.60;102212.16;4176860;28;20632;-85
2021/06/24 03:53:13;;;;;;;16.42;15.23;;;;;;;8.92;68.53;102230.38;4175956;28;20471;-84
2021/06/24 03:55:19;;;;;;;9.77;9.00;;;;;;;8.95;68.55;102234.63;4175687;28;20033;-84
2021/06/24 03:57:20;;;;;;;12.40;11.40;;;;;;;9.17;68.34;102279.41;4191057;28;20029;-84
2021/06/24 03:59:20;;;;;;;8.27;7.63;;;;;;;9.06;68.28;102248.72;4166774;28;20039;-84
2021/06/24 04:01:20;;;;;;;11.95;11.18;;;;;;;9.22;68.48;102279.72;4194202;28;20440;-84
2021/06/24 04:03:21;;;;;;;11.88;10.88;;;;;;;9.18;68.44;102267.47;4189712;28;20074;-85
2021/06/24 04:05:21;;;;;;;9.50;8.80;;;;;;;9.21;68.24;102258.91;4192003;28;20020;-85
2021/06/24 04:07:22;;;;;;;11.20;10.32;;;;;;;9.32;68.30;102268.59;4193423;28;20033;-84
2021/06/24 04:09:23;;;;;;;11.75;10.65;;;;;;;9.35;68.37;102276.47;4187380;28;20064;-85
2021/06/24 04:11:23;;;;;;;11.98;10.93;;;;;;;9.24;68.20;102248.47;4172117;28;20533;-85
2021/06/24 04:13:24;;;;;;;11.90;10.93;;;;;;;9.36;67.95;102242.63;4184680;28;20119;-85
2021/06/24 04:15:26;;;;;;;13.05;12.07;;;;;;;9.54;67.89;102262.31;4156644;28;20033;-85
2021/06/24 04:17:26;;;;;;;12.10;11.00;;;;;;;9.41;67.77;102248.41;4187445;28;20041;-85
2021/06/24 04:19:27;;;;;;;11.40;10.60;;;;;;;9.62;67.51;102264.16;4170324;28;20503;-84
2021/06/24 04:21:27;;;;;;;10.73;9.82;;;;;;;9.61;67.43;102252.38;4192286;28;20500;-84
2021/06/24 04:23:28;;;;;;;10.45;9.60;;;;;;;9.61;67.28;102235.97;4175864;28;20033;-84
2021/06/24 04:25:29;;;;;;;11.93;10.82;;;;;;;9.81;67.09;102254.63;4172562;28;20418;-84
2021/06/24 04:27:29;;;;;;;14.85;13.75;;;;;;;9.79;67.17;102240.25;4193673;28;20628;-84
2021/06/24 04:29:30;;;;;;;10.50;9.57;;;;;;;9.81;67.08;102238.22;4167938;28;20060;-83
2021/06/24 04:31:30;;;;;;;10.50;9.60;;;;;;;9.90;66.99;102236.25;4172067;28;20083;-83
2021/06/24 04:33:31;;;;;;;9.85;9.07;;;;;;;9.99;67.10;102254.28;4172442;28;20040;-84
2021/06/24 04:35:31;;;;;;;15.55;14.43;;;;;;;10.08;66.87;102257.81;4167937;28;20127;-84
2021/06/24 04:37:32;;;;;;;11.70;10.60;;;;;;;10.21;66.79;102249.84;4152720;28;20641;-84
2021/06/24 04:39:32;;;;;;;12.73;11.75;;;;;;;10.36;66.35;102251.72;4191935;28;20024;-85
2021/06/24 04:41:33;;;;;;;11.27;10.48;;;;;;;10.46;65.87;102247.69;4187803;28;20029;-86
2021/06/24 04:43:33;;;;;;;10.35;9.45;;;;;;;10.36;65.83;102218.88;4166163;28;20024;-83
2021/06/24 04:45:34;;;;;;;9.80;9.02;;;;;;;10.73;65.39;102252.72;4170210;28;20033;-84
2021/06/24 04:47:34;;;;;;;11.57;10.57;;;;;;;10.94;64.65;102261.03;4161334;28;20056;-84
2021/06/24 04:49:35;;;;;;;13.80;12.75;;;;;;;10.96;64.37;102255.34;4143479;28;20550;-84
2021/06/24 04:51:36;;;;;;;14.38;12.75;;;;;;;10.90;63.97;102256.97;4168331;28;20518;-87
2021/06/24 04:53:36;;;;;;;9.40;8.80;;;;;;;11.05;64.21;102262.44;4171713;28;20060;-85
2021/06/24 04:55:40;;;;;;;8.73;7.95;;;;;;;11.18;63.86;102246.16;4188738;28;20043;-84
2021/06/24 04:57:40;;;;;;;9.50;8.70;;;;;;;11.59;63.30;102263.91;4171957;28;20534;-86
2021/06/24 04:59:41;;;;;;;9.07;8.20;;;;;;;12.05;62.05;102260.78;4191924;28;20158;-85
2021/06/24 05:01:41;;;;;;;9.02;8.32;;;;;;;13.06;59.96;102242.22;4187999;28;20029;-85
2021/06/24 05:03:42;;;;;;;8.70;7.97;;;;;;;15.25;52.99;102242.38;4187141;28;20021;-85
2021/06/24 05:05:43;;;;;;;10.70;7.13;;;;;;;17.40;47.52;102234.59;4169326;28;20045;-85
2021/06/24 05:07:44;;;;;;;7.97;7.18;;;;;;;19.16;43.43;102228.53;4187318;28;20051;-85
2021/06/24 05:09:45;;;;;;;6.38;5.13;;;;;;;20.45;41.01;102228.81;4191439;28;20502;-86
2021/06/24 05:11:45;;;;;;;8.07;7.28;;;;;;;21.49;37.20;102217.88;4171038;28;20063;-86
2021/06/24 05:13:46;;;;;;;6.13;5.72;;;;;;;22.36;36.16;102228.91;4194002;28;20603;-87
2021/06/24 05:15:46;;;;;;;4.88;4.40;;;;;;;23.07;35.92;102222.00;4154864;28;20450;-86
2021/06/24 05:17:47;;;;;;;4.80;4.40;;;;;;;23.79;33.93;102241.69;4191715;28;20402;-85
2021/06/24 05:19:47;;;;;;;3.83;3.35;;;;;;;24.17;33.84;102226.31;4163273;28;20080;-85
2021/06/24 05:21:48;;;;;;;4.22;3.47;;;;;;;23.92;32.16;102240.31;4186509;28;20028;-84
2021/06/24 05:23:48;;;;;;;3.88;3.55;;;;;;;24.21;33.09;102240.63;4190827;28;20515;-84
2021/06/24 05:25:49;;;;;;;4.97;2.55;;;;;;;24.94;31.47;102253.28;4188350;28;20067;-85
2021/06/24 05:27:49;;;;;;;3.88;2.50;;;;;;;25.12;32.22;102260.22;4171551;28;20041;-87
2021/06/24 05:29:50;;;;;;;4.10;2.60;;;;;;;24.98;30.29;102253.56;4188171;28;20424;-86
2021/06/24 05:31:50;;;;;;;2.78;2.10;;;;;;;25.15;31.70;102253.19;4167802;28;20039;-85
2021/06/24 05:33:50;;;;;;;4.75;2.40;;;;;;;24.09;33.06;102231.69;4190147;28;20052;-86
2021/06/24 05:35:51;;;;;;;2.55;2.13;;;;;;;23.29;34.25;102232.94;4173304;28;20032;-86
2021/06/24 05:37:51;;;;;;;5.82;2.35;;;;;;;22.54;33.79;102248.00;4166184;28;20047;-90
2021/06/24 05:39:52;;;;;;;3.40;2.05;;;;;;;21.20;36.40;102223.66;4170479;28;20045;-84
2021/06/24 05:41:56;;;;;;;3.55;2.72;;;;;;;19.80;37.95;102221.94;4167227;28;20029;-85
2021/06/24 05:43:57;;;;;;;4.93;3.03;;;;;;;19.13;41.01;102234.59;4171320;28;20055;-81
2021/06/24 05:45:57;;;;;;;6.35;2.90;;;;;;;18.35;42.25;102232.91;4171421;28;20037;-87
2021/06/24 05:47:58;;;;;;;3.60;2.40;;;;;;;17.92;42.84;102236.81;4166220;28;20021;-82
2021/06/24 05:49:59;;;;;;;3.67;3.25;;;;;;;17.49;44.75;102231.50;4191940;28;20041;-82
2021/06/24 05:52:00;;;;;;;5.38;3.20;;;;;;;18.23;44.46;102215.41;4174928;28;20083;-83
2021/06/24 05:54:00;;;;;;;5.97;4.05;;;;;;;21.24;38.33;102229.53;4166640;28;20090;-82
2021/06/24 05:56:01;;;;;;;5.13;3.33;;;;;;;23.60;33.03;102228.28;4171989;28;20127;-83
2021/06/24 05:58:01;;;;;;;3.25;2.95;;;;;;;24.69;31.56;102218.66;4164082;28;20055;-83
2021/06/24 06:00:04;;;;;;;3.30;2.80;;;;;;;25.62;30.21;102206.94;4166768;28;20036;-83
2021/06/24 06:02:05;;;;;;;4.10;2.30;;;;;;;26.24;28.28;102201.59;4168432;28;20044;-85
2021/06/24 06:04:05;;;;;;;3.25;1.90;;;;;;;27.30;27.70;102199.75;4141066;28;20030;-84
2021/06/24 06:06:06;;;;;;;2.58;1.88;;;;;;;27.46;27.04;102216.38;4171372;28;20153;-84
2021/06/24 06:08:07;;;;;;;2.20;1.70;;;;;;;28.01;25.88;102224.16;4140125;28;20026;-84
2021/06/24 06:10:08;;;;;;;2.30;2.05;;;;;;;28.37;27.05;102213.09;4169984;28;20161;-84
2021/06/24 06:12:09;;;;;;;2.95;1.55;;;;;;;28.42;24.33;102198.09;4159380;28;20900;-84
2021/06/24 06:14:10;;;;;;;4.65;1.88;;;;;;;28.85;25.02;102214.69;4165562;28;20033;-84
2021/06/24 06:16:10;;;;;;;5.20;1.52;;;;;;;28.89;24.07;102197.97;4172211;28;20048;-85
2021/06/24 06:18:16;;;;;;;1.63;1.52;;;;;;;29.59;24.51;102207.91;4174843;28;20037;-82
2021/06/24 06:20:17;;;;;;;1.55;1.40;;;;;;;29.78;24.43;102196.44;4170008;28;20022;-86
2021/06/24 06:22:17;;;;;;;2.25;1.45;;;;;;;30.01;23.53;102187.94;4155392;28;20029;-82
2021/06/24 06:24:18;;;;;;;2.42;1.10;;;;;;;30.15;22.28;102199.13;4170670;28;20761;-85
2021/06/24 06:26:19;;;;;;;3.30;1.10;;;;;;;29.21;23.37;102205.44;4170702;28;20044;-85
2021/06/24 06:28:21;;;;;;;3.33;1.10;;;;;;;29.28;24.28;102199.38;4166972;28;20532;-84
2021/06/24 06:30:22;;;;;;;2.70;1.38;;;;;;;29.04;23.57;102208.06;4166539;28;20125;-85
2021/06/24 06:32:24;;;;;;;3.33;0.77;;;;;;;28.53;24.09;102195.91;4170780;28;20043;-82
2021/06/24 06:34:24;;;;;;;1.63;1.10;;;;;;;28.69;23.53;102205.72;4172713;28;20043;-82
2021/06/24 06:36:25;;;;;;;4.28;1.13;;;;;;;28.67;24.00;102213.66;4172146;28;20064;-83
2021/06/24 06:38:25;;;;;;;1.95;0.98;;;;;;;28.18;24.02;102212.34;4190110;28;20543;-84
2021/06/24 06:40:26;;;;;;;2.67;1.30;;;;;;;28.06;25.79;102210.84;4172736;28;20635;-83
2021/06/24 06:42:26;;;;;;;3.60;1.30;;;;;;;27.66;25.09;102199.19;4184383;28;20065;-84
2021/06/24 06:44:27;;;;;;;2.13;1.27;;;;;;;27.31;25.41;102186.50;4190108;28;20035;-84
2021/06/24 06:46:27;;;;;;;1.95;1.08;;;;;;;27.69;24.92;102175.22;4169552;28;20451;-86
2021/06/24 06:48:28;;;;;;;1.63;0.90;;;;;;;26.97;25.03;102182.81;4184298;28;20113;-84
2021/06/24 06:50:28;;;;;;;2.00;1.00;;;;;;;26.87;26.30;102183.72;4161821;28;20135;-85
2021/06/24 06:52:29;;;;;;;1.80;1.30;;;;;;;25.81;26.49;102187.44;4171119;28;20036;-84
2021/06/24 06:54:30;;;;;;;1.50;0.90;;;;;;;24.08;28.20;102191.66;4173391;28;20041;-83
2021/06/24 06:56:30;;;;;;;3.33;1.10;;;;;;;22.76;31.28;102202.34;4192956;28;20024;-84
2021/06/24 06:58:31;;;;;;;3.15;1.10;;;;;;;22.62;31.94;102182.44;4173503;28;20044;-83
2021/06/24 07:00:33;;;;;;;1.90;1.08;;;;;;;22.74;33.00;102208.22;4185080;28;20528;-81
2021/06/24 07:02:34;;;;;;;3.10;1.00;;;;;;;22.58;32.80;102189.66;4186678;28;20028;-82
2021/06/24 07:04:34;;;;;;;3.70;1.20;;;;;;;22.23;32.79;102203.16;4182968;28;20082;-84
2021/06/24 07:06:35;;;;;;;5.78;1.20;;;;;;;21.71;34.45;102195.50;4169703;28;20034;-82
2021/06/24 07:08:36;;;;;;;3.38;1.20;;;;;;;21.68;34.17;102202.44;4168708;28;20236;-86
2021/06/24 07:10:36;;;;;;;1.55;1.45;;;;;;;21.62;35.81;102191.53;4150129;28;20527;-82
2021/06/24 07:12:37;;;;;;;2.45;1.30;;;;;;;21.74;35.01;102194.97;4166731;28;20021;-87
2021/06/24 07:14:38;;;;;;;2.38;1.30;;;;;;;21.40;33.78;102198.00;4150158;28;20051;-84
2021/06/24 07:16:39;;;;;;;4.80;1.60;;;;;;;20.75;33.34;102195.03;4174004;28;20037;-83
2021/06/24 07:18:39;;;;;;;4.07;1.75;;;;;;;21.13;35.46;102190.47;4190538;28;20128;-81
2021/06/24 07:20:41;;;;;;;3.80;1.77;;;;;;;21.27;34.53;102188.09;4169109;28;20037;-83
2021/06/24 07:22:41;;;;;;;2.30;1.30;;;;;;;20.64;34.13;102198.78;4188671;28;20035;-83
2021/06/24 07:24:42;;;;;;;4.60;2.30;;;;;;;19.70;36.54;102208.72;4187641;28;20044;-86
2021/06/24 07:26:42;;;;;;;3.53;1.58;;;;;;;19.84;36.41;102210.09;4186616;28;20075;-84
2021/06/24 07:28:43;;;;;;;3.75;1.80;;;;;;;19.34;36.59;102213.59;4169243;28;20033;-82
2021/06/24 07:30:44;;;;;;;3.38;1.55;;;;;;;19.23;37.17;102176.47;4170798;28;20021;-85
2021/06/24 07:32:44;;;;;;;4.50;1.20;;;;;;;18.96;38.15;102188.16;4156499;28;20037;-84
2021/06/24 07:34:48;;;;;;;2.88;1.20;;;;;;;18.61;38.49;102205.72;4170066;28;20112;-85
2021/06/24 07:36:49;;;;;;;3.67;1.55;;;;;;;18.39;39.02;102188.91;4162031;28;20067;-85
2021/06/24 07:38:50;;;;;;;3.65;1.80;;;;;;;18.48;38.40;102206.00;4182788;28;20098;-83
2021/06/24 07:40:50;;;;;;;4.28;1.83;;;;;;;18.81;39.21;102199.78;4187164;28;20717;-87
2021/06/24 07:42:51;;;;;;;2.45;0.95;;;;;;;19.20;38.18;102216.69;4186497;28;20060;-85
2021/06/24 07:44:51;;;;;;;3.72;1.90;;;;;;;19.49;37.31;102210.28;4154672;28;20507;-83
2021/06/24 07:46:52;;;;;;;2.50;1.60;;;;;;;19.26;37.59;102200.97;4165310;28;20033;-82
2021/06/24 07:48:52;;;;;;;2.53;1.48;;;;;;;19.49;38.37;102202.78;4171572;28;20048;-85
2021/06/24 07:50:53;;;;;;;2.38;2.10;;;;;;;19.57;37.53;102188.50;4169826;28;20051;-86
2021/06/24 07:52:53;;;;;;;4.43;2.53;;;;;;;19.87;36.98;102212.34;4161247;28;20103;-83
2021/06/24 07:54:54;;;;;;;2.97;1.40;;;;;;;20.07;36.01;102211.84;4187395;28;20039;-86
2021/06/24 07:56:55;;;;;;;3.58;1.20;;;;;;;19.56;36.56;102174.88;4157644;28;20081;-86
2021/06/24 07:58:55;;;;;;;3.00;1.58;;;;;;;19.03;37.28;102190.78;4148603;28;20034;-83
2021/06/24 08:00:59;;;;;;;17.60;1.92;;;;;;;18.25;38.79;102174.41;4182921;28;20032;-85
2021/06/24 08:02:59;;;;;;;2.25;1.70;;;;;;;18.43;39.92;102165.16;4170844;28;20187;-84
2021/06/24 08:05:03;;;;;;;3.42;2.08;;;;;;;18.31;39.62;102200.38;4169764;28;20045;-85
2021/06/24 08:07:06;;;;;;;3.03;2.00;;;;;;;17.91;41.34;102190.81;4182633;28;20437;-84
2021/06/24 08:09:10;;;;;;;2.00;1.63;;;;;;;17.65;41.06;102175.47;4166479;28;20063;-84
2021/06/24 08:11:13;;;;;;;2.38;1.88;;;;;;;17.60;41.19;102203.03;4185510;28;20032;-86
2021/06/24 08:13:13;;;;;;;1.40;1.30;;;;;;;17.50;41.26;102177.84;4187445;28;20028;-86
2021/06/24 08:15:17;;;;;;;3.20;1.45;;;;;;;17.57;41.30;102189.69;4169398;28;20684;-82
2021/06/24 08:17:17;;;;;;;1.85;1.17;;;;;;;17.82;41.74;102182.00;4183740;28;20060;-85
2021/06/24 08:19:18;;;;;;;3.97;1.08;;;;;;;18.12;40.00;102194.91;4139264;28;20041;-85
2021/06/24 08:21:19;;;;;;;3.40;1.27;;;;;;;18.50;41.21;102187.19;4171632;28;20090;-85
2021/06/24 08:23:20;;;;;;;3.60;1.27;;;;;;;18.42;39.02;102174.53;4151682;28;20041;-82
2021/06/24 08:25:23;;;;;;;4.63;1.33;;;;;;;18.21;39.57;102175.16;4165784;28;20030;-85
2021/06/24 08:27:24;;;;;;;1.30;1.20;;;;;;;18.15;41.56;102175.03;4149320;28;20033;-86
2021/06/24 08:29:25;;;;;;;3.50;1.50;;;;;;;18.00;40.51;102163.59;4169433;28;20533;-88
2021/06/24 08:31:25;;;;;;;5.35;1.75;;;;;;;17.61;40.56;102165.94;4154183;28;20038;-86
2021/06/24 08:33:27;;;;;;;2.17;1.50;;;;;;;17.78;41.11;102188.25;4187169;28;20102;-87
2021/06/24 08:35:27;;;;;;;1.98;1.20;;;;;;;17.32;41.90;102160.22;4184214;28;20139;-84
2021/06/24 08:37:27;;;;;;;2.35;1.25;;;;;;;17.47;42.90;102176.34;4166821;28;20104;-84
2021/06/24 08:39:28;;;;;;;5.30;1.73;;;;;;;17.72;43.35;102184.53;4158108;28;20041;-83
2021/06/24 08:41:31;;;;;;;3.00;1.50;;;;;;;18.15;42.21;102180.56;4167169;28;20116;-89
2021/06/24 08:43:32;;;;;;;3.83;1.92;;;;;;;18.02;41.90;102161.41;4165777;28;20040;-86
2021/06/24 08:45:32;;;;;;;3.00;1.83;;;;;;;18.08;42.01;102184.56;4185775;28;20449;-82
2021/06/24 08:47:35;;;;;;;2.47;1.50;;;;;;;17.92;41.95;102181.41;4187067;28;20025;-84
2021/06/24 08:49:37;;;;;;;4.18;1.88;;;;;;;18.10;41.41;102188.75;4183547;28;20033;-84
2021/06/24 08:51:37;;;;;;;3.13;1.90;;;;;;;17.92;41.25;102167.56;4170377;28;20064;-82
2021/06/24 08:53:39;;;;;;;3.28;1.85;;;;;;;17.98;42.32;102168.50;4164983;28;20058;-84
2021/06/24 08:55:41;;;;;;;3.13;1.70;;;;;;;18.26;40.75;102178.03;4180476;28;20087;-84
2021/06/24 08:57:41;;;;;;;2.55;2.03;;;;;;;18.56;40.93;102190.94;4170690;28;20060;-82
2021/06/24 08:59:43;;;;;;;2.05;1.90;;;;;;;18.59;41.04;102190.44;4186171;28;20029;-86
2021/06/24 09:01:51;;;;;;;4.57;1.85;;;;;;;18.66;40.75;102194.78;4189512;28;20028;-88
2021/06/24 09:03:52;;;;;;;2.85;1.63;;;;;;;18.26;40.14;102202.97;4184401;28;20024;-87
2021/06/24 09:06:03;;;;;;;2.75;2.17;;;;;;;17.88;40.85;102182.13;4140443;28;20063;-84
2021/06/24 09:08:04;;;;;;;2.45;1.38;;;;;;;17.96;41.02;102181.78;4184297;28;20505;-83
2021/06/24 09:10:04;;;;;;;4.25;1.80;;;;;;;17.94;40.76;102186.72;4167347;28;20088;-85
2021/06/24 09:12:10;;;;;;;1.48;1.38;;;;;;;17.96;40.48;102187.31;4169027;28;20033;-86
2021/06/24 09:14:13;;;;;;;2.45;1.75;;;;;;;17.96;40.71;102203.94;4188132;28;20024;-84
2021/06/24 09:16:34;;;;;;;2.22;2.03;;;;;;;17.95;41.49;102185.63;4187132;28;20119;-87
2021/06/24 09:18:37;;;;;;;;;;;;;;;17.86;41.36;102200.91;4186745;28;20422;-86
2021/06/24 09:20:37;;;;;;;5.10;1.75;;;;;;;17.89;40.75;102194.88;4180537;28;19924;-86
2021/06/24 09:22:38;;;;;;;4.22;1.50;;;;;;;17.91;42.20;102184.44;4187666;28;20356;-85